Terminal Aerodrome Forecast
Issued by NWS

Home | Current Version | Previous Version | Text Only | Print | Product List | Glossary On
Versions: 1 2 3 4 5 6 7 8 9 10 11 12 13 14 15 16 17 18 19 20 21 22 23 24 25 26 27 28 29 30 31
000
FTAK31 PAFA 121858 AAA
TAFASC
TAF AMD
PASC 121858Z 1219/1318 08025G33KT 1/4SM SN BLSN OVC015
     FM122100 08027G35KT 1/4SM BLSN OVC008=

USA.gov is the U.S. government's official web portal to all federal, state and local government web resources and services.